DLH weather

Duluth International Airport
Duluth, Minnesota, United States

Public forecast

Using degrees Fahrenheit for public forecast. Weather courtesy of forecast.io.

METAR (pilot weather report)

Retrieved 2019/05/22 17:55 UTC (13 minutes ago):

KDLH 221755Z 09016G25KT 1 1/2SM -RA BR OVC003 07/06 A2964 RMK AO2 PK WND 08027/1742 SFC VIS 1 3/4 SLP047 P0003 60016 T00720056 10072 20061 56017

TAF (pilot weather forecast)

Retrieved 2019/05/22 18:34 UTC (0 seconds ago):

TAF KDLH 221731Z 2218/2318 09021G30KT 3SM -RA BR OVC004 TEMPO 2218/2220 1 1/2SM -RA BR FM230000 09007KT 3SM -SHRA BR OVC004 FM230300 10009KT 2SM -DZ BR OVC003 FM230600 18005KT 2SM -DZ BR OVC003 FM231000 27008KT 6SM BR OVC004 FM231600 30011G18KT P6SM OVC010